sensor_id;sensor_type;location;lat;lon;timestamp;P1;durP1;ratioP1;P2;durP2;ratioP2
7205;SDS011;3644;53.480;10.004;2022-07-23T00:00:53;5.63;;;1.43;;
7205;SDS011;3644;53.480;10.004;2022-07-23T00:03:19;5.03;;;1.53;;
7205;SDS011;3644;53.480;10.004;2022-07-23T00:05:44;4.33;;;1.73;;
7205;SDS011;3644;53.480;10.004;2022-07-23T00:08:10;6.53;;;2.07;;
7205;SDS011;3644;53.480;10.004;2022-07-23T00:10:36;3.57;;;1.87;;
7205;SDS011;3644;53.480;10.004;2022-07-23T00:13:02;7.40;;;1.97;;
7205;SDS011;3644;53.480;10.004;2022-07-23T00:15:27;9.70;;;2.57;;
7205;SDS011;3644;53.480;10.004;2022-07-23T00:17:53;10.63;;;2.30;;
7205;SDS011;3644;53.480;10.004;2022-07-23T00:20:18;11.30;;;2.10;;
7205;SDS011;3644;53.480;10.004;2022-07-23T00:22:51;4.80;;;1.60;;
7205;SDS011;3644;53.480;10.004;2022-07-23T00:25:18;2.73;;;1.33;;
7205;SDS011;3644;53.480;10.004;2022-07-23T00:27:45;5.93;;;1.23;;
7205;SDS011;3644;53.480;10.004;2022-07-23T00:30:10;7.53;;;1.90;;
7205;SDS011;3644;53.480;10.004;2022-07-23T00:32:50;5.47;;;1.90;;
7205;SDS011;3644;53.480;10.004;2022-07-23T00:35:19;6.50;;;2.00;;
7205;SDS011;3644;53.480;10.004;2022-07-23T00:37:45;2.90;;;1.60;;
7205;SDS011;3644;53.480;10.004;2022-07-23T00:40:12;4.77;;;1.60;;
7205;SDS011;3644;53.480;10.004;2022-07-23T00:42:38;9.10;;;1.20;;
7205;SDS011;3644;53.480;10.004;2022-07-23T00:45:04;5.17;;;1.60;;
7205;SDS011;3644;53.480;10.004;2022-07-23T00:47:30;10.37;;;2.00;;
7205;SDS011;3644;53.480;10.004;2022-07-23T00:49:55;5.63;;;2.10;;
7205;SDS011;3644;53.480;10.004;2022-07-23T00:52:21;4.90;;;2.70;;
7205;SDS011;3644;53.480;10.004;2022-07-23T00:54:46;5.80;;;2.00;;
7205;SDS011;3644;53.480;10.004;2022-07-23T00:57:12;4.03;;;1.70;;
7205;SDS011;3644;53.480;10.004;2022-07-23T00:59:38;3.30;;;1.90;;
7205;SDS011;3644;53.480;10.004;2022-07-23T01:02:05;9.87;;;2.60;;
7205;SDS011;3644;53.480;10.004;2022-07-23T01:04:30;5.10;;;1.80;;
7205;SDS011;3644;53.480;10.004;2022-07-23T01:06:56;12.77;;;1.97;;
7205;SDS011;3644;53.480;10.004;2022-07-23T01:09:22;7.80;;;1.73;;
7205;SDS011;3644;53.480;10.004;2022-07-23T01:11:47;5.03;;;1.90;;
7205;SDS011;3644;53.480;10.004;2022-07-23T01:14:14;7.07;;;1.63;;
7205;SDS011;3644;53.480;10.004;2022-07-23T01:16:41;6.37;;;1.80;;
7205;SDS011;3644;53.480;10.004;2022-07-23T01:19:08;6.23;;;1.67;;
7205;SDS011;3644;53.480;10.004;2022-07-23T01:21:38;4.60;;;1.73;;
7205;SDS011;3644;53.480;10.004;2022-07-23T01:24:06;4.37;;;1.53;;
7205;SDS011;3644;53.480;10.004;2022-07-23T01:26:32;3.43;;;1.40;;
7205;SDS011;3644;53.480;10.004;2022-07-23T01:28:57;6.03;;;1.53;;
7205;SDS011;3644;53.480;10.004;2022-07-23T01:31:23;4.90;;;1.73;;
7205;SDS011;3644;53.480;10.004;2022-07-23T01:33:49;5.30;;;1.60;;
7205;SDS011;3644;53.480;10.004;2022-07-23T01:36:14;1.70;;;1.47;;
7205;SDS011;3644;53.480;10.004;2022-07-23T01:38:40;5.13;;;1.80;;
7205;SDS011;3644;53.480;10.004;2022-07-23T01:41:05;11.50;;;1.57;;
7205;SDS011;3644;53.480;10.004;2022-07-23T01:43:31;4.90;;;1.47;;
7205;SDS011;3644;53.480;10.004;2022-07-23T01:45:56;3.60;;;1.50;;
7205;SDS011;3644;53.480;10.004;2022-07-23T01:48:22;3.20;;;2.33;;
7205;SDS011;3644;53.480;10.004;2022-07-23T01:50:47;4.57;;;2.20;;
7205;SDS011;3644;53.480;10.004;2022-07-23T01:53:13;3.13;;;1.40;;
7205;SDS011;3644;53.480;10.004;2022-07-23T01:55:40;6.63;;;1.93;;
7205;SDS011;3644;53.480;10.004;2022-07-23T01:58:06;3.03;;;1.53;;
7205;SDS011;3644;53.480;10.004;2022-07-23T02:00:31;1.80;;;1.33;;
7205;SDS011;3644;53.480;10.004;2022-07-23T02:02:57;3.70;;;1.43;;
7205;SDS011;3644;53.480;10.004;2022-07-23T02:05:25;14.23;;;1.33;;
7205;SDS011;3644;53.480;10.004;2022-07-23T02:07:53;5.87;;;1.50;;
7205;SDS011;3644;53.480;10.004;2022-07-23T02:10:19;5.13;;;1.40;;
7205;SDS011;3644;53.480;10.004;2022-07-23T02:12:45;5.00;;;1.30;;
7205;SDS011;3644;53.480;10.004;2022-07-23T02:15:10;4.20;;;1.50;;
7205;SDS011;3644;53.480;10.004;2022-07-23T02:17:36;2.20;;;1.27;;
7205;SDS011;3644;53.480;10.004;2022-07-23T02:20:02;1.87;;;1.47;;
7205;SDS011;3644;53.480;10.004;2022-07-23T02:22:27;3.80;;;1.67;;
7205;SDS011;3644;53.480;10.004;2022-07-23T02:24:53;2.70;;;1.50;;
7205;SDS011;3644;53.480;10.004;2022-07-23T02:27:18;4.03;;;1.70;;
7205;SDS011;3644;53.480;10.004;2022-07-23T02:29:44;7.60;;;2.13;;
7205;SDS011;3644;53.480;10.004;2022-07-23T02:32:09;5.73;;;2.30;;
7205;SDS011;3644;53.480;10.004;2022-07-23T02:34:35;6.13;;;2.60;;
7205;SDS011;3644;53.480;10.004;2022-07-23T02:37:00;3.77;;;1.80;;
7205;SDS011;3644;53.480;10.004;2022-07-23T02:39:27;11.87;;;3.73;;
7205;SDS011;3644;53.480;10.004;2022-07-23T02:41:52;2.40;;;1.57;;
7205;SDS011;3644;53.480;10.004;2022-07-23T02:44:18;10.33;;;2.30;;
7205;SDS011;3644;53.480;10.004;2022-07-23T02:46:43;7.33;;;2.20;;
7205;SDS011;3644;53.480;10.004;2022-07-23T02:49:09;5.37;;;2.40;;
7205;SDS011;3644;53.480;10.004;2022-07-23T02:51:34;9.00;;;2.37;;
7205;SDS011;3644;53.480;10.004;2022-07-23T02:54:00;5.23;;;2.10;;
7205;SDS011;3644;53.480;10.004;2022-07-23T02:56:25;6.87;;;2.37;;
7205;SDS011;3644;53.480;10.004;2022-07-23T02:58:51;3.20;;;1.80;;
7205;SDS011;3644;53.480;10.004;2022-07-23T03:01:16;5.50;;;2.10;;
7205;SDS011;3644;53.480;10.004;2022-07-23T03:03:42;3.30;;;2.07;;
7205;SDS011;3644;53.480;10.004;2022-07-23T03:06:07;6.83;;;2.10;;
7205;SDS011;3644;53.480;10.004;2022-07-23T03:08:33;8.50;;;2.70;;
7205;SDS011;3644;53.480;10.004;2022-07-23T03:10:58;3.23;;;2.27;;
7205;SDS011;3644;53.480;10.004;2022-07-23T03:13:24;8.57;;;2.57;;
7205;SDS011;3644;53.480;10.004;2022-07-23T03:15:49;6.70;;;2.60;;
7205;SDS011;3644;53.480;10.004;2022-07-23T03:18:15;7.33;;;2.70;;
7205;SDS011;3644;53.480;10.004;2022-07-23T03:20:40;5.07;;;2.20;;
7205;SDS011;3644;53.480;10.004;2022-07-23T03:23:06;7.53;;;3.00;;
7205;SDS011;3644;53.480;10.004;2022-07-23T03:25:32;6.63;;;2.67;;
7205;SDS011;3644;53.480;10.004;2022-07-23T03:27:57;9.37;;;2.97;;
7205;SDS011;3644;53.480;10.004;2022-07-23T03:30:23;6.70;;;2.97;;
7205;SDS011;3644;53.480;10.004;2022-07-23T03:32:48;8.87;;;2.67;;
7205;SDS011;3644;53.480;10.004;2022-07-23T03:35:14;4.37;;;2.10;;
7205;SDS011;3644;53.480;10.004;2022-07-23T03:37:39;8.53;;;2.30;;
7205;SDS011;3644;53.480;10.004;2022-07-23T03:40:05;5.00;;;2.80;;
7205;SDS011;3644;53.480;10.004;2022-07-23T03:42:31;3.73;;;2.57;;
7205;SDS011;3644;53.480;10.004;2022-07-23T03:44:57;4.67;;;2.70;;
7205;SDS011;3644;53.480;10.004;2022-07-23T03:47:22;4.93;;;2.40;;
7205;SDS011;3644;53.480;10.004;2022-07-23T03:49:48;4.20;;;2.40;;
7205;SDS011;3644;53.480;10.004;2022-07-23T03:52:14;6.80;;;2.83;;
7205;SDS011;3644;53.480;10.004;2022-07-23T03:54:40;9.50;;;2.50;;
7205;SDS011;3644;53.480;10.004;2022-07-23T03:57:05;4.93;;;2.20;;
7205;SDS011;3644;53.480;10.004;2022-07-23T03:59:31;8.97;;;3.10;;
7205;SDS011;3644;53.480;10.004;2022-07-23T04:01:56;5.73;;;2.40;;
7205;SDS011;3644;53.480;10.004;2022-07-23T04:04:22;2.60;;;2.07;;
7205;SDS011;3644;53.480;10.004;2022-07-23T04:06:48;5.13;;;2.23;;
7205;SDS011;3644;53.480;10.004;2022-07-23T04:09:13;7.13;;;2.77;;
7205;SDS011;3644;53.480;10.004;2022-07-23T04:11:39;6.40;;;2.30;;
7205;SDS011;3644;53.480;10.004;2022-07-23T04:14:04;6.80;;;2.47;;
7205;SDS011;3644;53.480;10.004;2022-07-23T04:16:30;3.83;;;2.50;;
7205;SDS011;3644;53.480;10.004;2022-07-23T04:18:56;8.30;;;2.63;;
7205;SDS011;3644;53.480;10.004;2022-07-23T04:21:22;7.07;;;2.83;;
7205;SDS011;3644;53.480;10.004;2022-07-23T04:23:49;6.73;;;2.40;;
7205;SDS011;3644;53.480;10.004;2022-07-23T04:26:14;5.93;;;2.10;;
7205;SDS011;3644;53.480;10.004;2022-07-23T04:28:40;7.37;;;2.60;;
7205;SDS011;3644;53.480;10.004;2022-07-23T04:31:06;4.40;;;3.00;;
7205;SDS011;3644;53.480;10.004;2022-07-23T04:33:32;7.17;;;2.70;;
7205;SDS011;3644;53.480;10.004;2022-07-23T04:35:57;4.67;;;2.63;;
7205;SDS011;3644;53.480;10.004;2022-07-23T04:38:23;11.40;;;3.83;;
7205;SDS011;3644;53.480;10.004;2022-07-23T04:40:48;5.90;;;3.13;;
7205;SDS011;3644;53.480;10.004;2022-07-23T04:43:14;5.17;;;2.40;;
7205;SDS011;3644;53.480;10.004;2022-07-23T04:45:40;8.43;;;2.87;;
7205;SDS011;3644;53.480;10.004;2022-07-23T04:48:06;5.10;;;2.80;;
7205;SDS011;3644;53.480;10.004;2022-07-23T04:50:31;6.83;;;2.60;;
7205;SDS011;3644;53.480;10.004;2022-07-23T04:52:57;12.53;;;2.80;;
7205;SDS011;3644;53.480;10.004;2022-07-23T04:55:22;7.70;;;4.00;;
7205;SDS011;3644;53.480;10.004;2022-07-23T04:57:48;5.77;;;2.97;;
7205;SDS011;3644;53.480;10.004;2022-07-23T05:00:14;4.77;;;3.00;;
7205;SDS011;3644;53.480;10.004;2022-07-23T05:02:39;9.40;;;3.03;;
7205;SDS011;3644;53.480;10.004;2022-07-23T05:05:05;4.37;;;2.70;;
7205;SDS011;3644;53.480;10.004;2022-07-23T05:07:31;3.77;;;2.80;;
7205;SDS011;3644;53.480;10.004;2022-07-23T05:09:56;5.67;;;3.40;;
7205;SDS011;3644;53.480;10.004;2022-07-23T05:12:22;8.23;;;3.80;;
7205;SDS011;3644;53.480;10.004;2022-07-23T05:14:47;4.83;;;3.53;;
7205;SDS011;3644;53.480;10.004;2022-07-23T05:17:13;5.33;;;3.07;;
7205;SDS011;3644;53.480;10.004;2022-07-23T05:19:38;6.23;;;3.30;;
7205;SDS011;3644;53.480;10.004;2022-07-23T05:22:04;8.20;;;3.00;;
7205;SDS011;3644;53.480;10.004;2022-07-23T05:24:29;5.20;;;2.97;;
7205;SDS011;3644;53.480;10.004;2022-07-23T05:26:55;6.77;;;3.33;;
7205;SDS011;3644;53.480;10.004;2022-07-23T05:29:20;7.73;;;2.50;;
7205;SDS011;3644;53.480;10.004;2022-07-23T05:31:46;4.93;;;2.93;;
7205;SDS011;3644;53.480;10.004;2022-07-23T05:34:11;7.50;;;2.73;;
7205;SDS011;3644;53.480;10.004;2022-07-23T05:36:37;6.17;;;3.33;;
7205;SDS011;3644;53.480;10.004;2022-07-23T05:39:03;3.80;;;3.37;;
7205;SDS011;3644;53.480;10.004;2022-07-23T05:41:28;7.43;;;2.67;;
7205;SDS011;3644;53.480;10.004;2022-07-23T05:43:54;6.50;;;3.10;;
7205;SDS011;3644;53.480;10.004;2022-07-23T05:46:20;8.00;;;4.40;;
7205;SDS011;3644;53.480;10.004;2022-07-23T05:48:45;13.77;;;3.50;;
7205;SDS011;3644;53.480;10.004;2022-07-23T05:51:18;8.60;;;2.87;;
7205;SDS011;3644;53.480;10.004;2022-07-23T05:53:44;4.60;;;2.70;;
7205;SDS011;3644;53.480;10.004;2022-07-23T05:56:10;9.73;;;3.03;;
7205;SDS011;3644;53.480;10.004;2022-07-23T05:58:35;5.53;;;2.70;;
7205;SDS011;3644;53.480;10.004;2022-07-23T06:01:01;7.03;;;3.07;;
7205;SDS011;3644;53.480;10.004;2022-07-23T06:03:26;9.13;;;2.70;;
7205;SDS011;3644;53.480;10.004;2022-07-23T06:05:52;2.90;;;2.27;;
7205;SDS011;3644;53.480;10.004;2022-07-23T06:08:17;3.83;;;2.80;;
7205;SDS011;3644;53.480;10.004;2022-07-23T06:10:43;5.00;;;2.40;;
7205;SDS011;3644;53.480;10.004;2022-07-23T06:13:08;4.00;;;2.57;;
7205;SDS011;3644;53.480;10.004;2022-07-23T06:15:34;4.83;;;2.40;;
7205;SDS011;3644;53.480;10.004;2022-07-23T06:17:59;4.40;;;2.07;;
7205;SDS011;3644;53.480;10.004;2022-07-23T06:20:25;2.40;;;1.83;;
7205;SDS011;3644;53.480;10.004;2022-07-23T06:22:50;4.50;;;2.27;;
7205;SDS011;3644;53.480;10.004;2022-07-23T06:25:16;11.07;;;2.50;;
7205;SDS011;3644;53.480;10.004;2022-07-23T06:27:41;6.43;;;2.40;;
7205;SDS011;3644;53.480;10.004;2022-07-23T06:30:07;4.60;;;1.70;;
7205;SDS011;3644;53.480;10.004;2022-07-23T06:32:33;2.30;;;1.40;;
7205;SDS011;3644;53.480;10.004;2022-07-23T06:34:59;7.97;;;2.00;;
7205;SDS011;3644;53.480;10.004;2022-07-23T06:37:24;6.30;;;1.93;;
7205;SDS011;3644;53.480;10.004;2022-07-23T06:39:50;3.83;;;1.70;;
7205;SDS011;3644;53.480;10.004;2022-07-23T06:42:15;8.63;;;1.73;;
7205;SDS011;3644;53.480;10.004;2022-07-23T06:44:41;5.77;;;1.93;;
7205;SDS011;3644;53.480;10.004;2022-07-23T06:47:06;1.90;;;1.70;;
7205;SDS011;3644;53.480;10.004;2022-07-23T06:49:32;7.20;;;2.27;;
7205;SDS011;3644;53.480;10.004;2022-07-23T06:51:57;7.93;;;1.50;;
7205;SDS011;3644;53.480;10.004;2022-07-23T06:54:23;5.83;;;1.93;;
7205;SDS011;3644;53.480;10.004;2022-07-23T06:56:48;6.17;;;2.17;;
7205;SDS011;3644;53.480;10.004;2022-07-23T06:59:14;3.13;;;2.03;;
7205;SDS011;3644;53.480;10.004;2022-07-23T07:01:39;4.97;;;1.60;;
7205;SDS011;3644;53.480;10.004;2022-07-23T07:04:05;6.67;;;3.07;;
7205;SDS011;3644;53.480;10.004;2022-07-23T07:06:30;7.60;;;2.53;;
7205;SDS011;3644;53.480;10.004;2022-07-23T07:08:56;4.57;;;2.67;;
7205;SDS011;3644;53.480;10.004;2022-07-23T07:11:22;5.90;;;2.20;;
7205;SDS011;3644;53.480;10.004;2022-07-23T07:13:48;1.80;;;1.70;;
7205;SDS011;3644;53.480;10.004;2022-07-23T07:16:14;6.73;;;1.80;;
7205;SDS011;3644;53.480;10.004;2022-07-23T07:18:39;6.00;;;1.90;;
7205;SDS011;3644;53.480;10.004;2022-07-23T07:21:05;7.30;;;2.00;;
7205;SDS011;3644;53.480;10.004;2022-07-23T07:23:30;6.93;;;1.77;;
7205;SDS011;3644;53.480;10.004;2022-07-23T07:25:56;2.93;;;1.33;;
7205;SDS011;3644;53.480;10.004;2022-07-23T07:28:21;5.83;;;1.57;;
7205;SDS011;3644;53.480;10.004;2022-07-23T07:30:47;2.70;;;1.30;;
7205;SDS011;3644;53.480;10.004;2022-07-23T07:33:12;1.50;;;1.30;;
7205;SDS011;3644;53.480;10.004;2022-07-23T07:35:38;7.13;;;1.20;;
7205;SDS011;3644;53.480;10.004;2022-07-23T07:38:03;1.23;;;1.13;;
7205;SDS011;3644;53.480;10.004;2022-07-23T07:40:29;1.40;;;1.30;;
7205;SDS011;3644;53.480;10.004;2022-07-23T07:42:54;1.80;;;1.17;;
7205;SDS011;3644;53.480;10.004;2022-07-23T07:45:22;4.20;;;1.10;;
7205;SDS011;3644;53.480;10.004;2022-07-23T07:47:48;1.23;;;1.00;;
7205;SDS011;3644;53.480;10.004;2022-07-23T07:50:14;2.93;;;1.00;;
7205;SDS011;3644;53.480;10.004;2022-07-23T07:52:40;4.03;;;1.00;;
7205;SDS011;3644;53.480;10.004;2022-07-23T07:55:07;2.50;;;1.17;;
7205;SDS011;3644;53.480;10.004;2022-07-23T07:57:33;1.67;;;1.00;;
7205;SDS011;3644;53.480;10.004;2022-07-23T07:59:59;2.17;;;1.30;;
7205;SDS011;3644;53.480;10.004;2022-07-23T08:02:25;5.33;;;0.87;;
7205;SDS011;3644;53.480;10.004;2022-07-23T08:04:50;1.57;;;1.00;;
7205;SDS011;3644;53.480;10.004;2022-07-23T08:07:16;3.70;;;1.00;;
7205;SDS011;3644;53.480;10.004;2022-07-23T08:09:41;13.30;;;1.50;;
7205;SDS011;3644;53.480;10.004;2022-07-23T08:12:07;1.53;;;1.13;;
7205;SDS011;3644;53.480;10.004;2022-07-23T08:14:33;1.40;;;0.80;;
7205;SDS011;3644;53.480;10.004;2022-07-23T08:16:58;1.63;;;1.03;;
7205;SDS011;3644;53.480;10.004;2022-07-23T08:19:25;2.50;;;1.00;;
7205;SDS011;3644;53.480;10.004;2022-07-23T08:21:50;3.00;;;1.40;;
7205;SDS011;3644;53.480;10.004;2022-07-23T08:24:16;1.53;;;1.07;;
7205;SDS011;3644;53.480;10.004;2022-07-23T08:26:41;2.77;;;1.10;;
7205;SDS011;3644;53.480;10.004;2022-07-23T08:29:07;1.20;;;1.10;;
7205;SDS011;3644;53.480;10.004;2022-07-23T08:31:33;3.90;;;1.03;;
7205;SDS011;3644;53.480;10.004;2022-07-23T08:33:59;1.17;;;0.83;;
7205;SDS011;3644;53.480;10.004;2022-07-23T08:36:25;2.40;;;0.87;;
7205;SDS011;3644;53.480;10.004;2022-07-23T08:38:52;2.83;;;0.70;;
7205;SDS011;3644;53.480;10.004;2022-07-23T08:41:19;0.70;;;0.70;;
7205;SDS011;3644;53.480;10.004;2022-07-23T08:43:44;1.63;;;0.73;;
7205;SDS011;3644;53.480;10.004;2022-07-23T08:46:10;0.80;;;0.80;;
7205;SDS011;3644;53.480;10.004;2022-07-23T08:48:37;2.63;;;1.20;;
7205;SDS011;3644;53.480;10.004;2022-07-23T08:51:03;2.10;;;0.70;;
7205;SDS011;3644;53.480;10.004;2022-07-23T08:53:30;3.13;;;1.27;;
7205;SDS011;3644;53.480;10.004;2022-07-23T08:55:58;3.00;;;1.40;;
7205;SDS011;3644;53.480;10.004;2022-07-23T08:58:28;1.67;;;0.87;;
7205;SDS011;3644;53.480;10.004;2022-07-23T09:00:54;1.50;;;0.90;;
7205;SDS011;3644;53.480;10.004;2022-07-23T09:03:33;3.23;;;1.07;;
7205;SDS011;3644;53.480;10.004;2022-07-23T09:06:01;0.80;;;0.80;;
7205;SDS011;3644;53.480;10.004;2022-07-23T09:08:40;1.37;;;0.70;;
7205;SDS011;3644;53.480;10.004;2022-07-23T09:11:07;4.80;;;0.90;;
7205;SDS011;3644;53.480;10.004;2022-07-23T09:13:48;1.00;;;0.73;;
7205;SDS011;3644;53.480;10.004;2022-07-23T09:16:14;3.80;;;0.90;;
7205;SDS011;3644;53.480;10.004;2022-07-23T09:18:51;1.53;;;0.90;;
7205;SDS011;3644;53.480;10.004;2022-07-23T09:26:25;4.63;;;1.40;;
7205;SDS011;3644;53.480;10.004;2022-07-23T09:28:56;2.10;;;0.90;;
7205;SDS011;3644;53.480;10.004;2022-07-23T09:31:25;1.90;;;1.20;;
7205;SDS011;3644;53.480;10.004;2022-07-23T09:34:08;1.20;;;1.10;;
7205;SDS011;3644;53.480;10.004;2022-07-23T09:36:42;3.83;;;1.00;;
7205;SDS011;3644;53.480;10.004;2022-07-23T09:39:08;6.43;;;1.30;;
7205;SDS011;3644;53.480;10.004;2022-07-23T09:41:35;1.23;;;1.13;;
7205;SDS011;3644;53.480;10.004;2022-07-23T09:44:12;1.60;;;0.97;;
7205;SDS011;3644;53.480;10.004;2022-07-23T09:46:41;3.50;;;0.80;;
7205;SDS011;3644;53.480;10.004;2022-07-23T09:49:20;9.70;;;1.30;;
7205;SDS011;3644;53.480;10.004;2022-07-23T09:51:49;2.37;;;1.10;;
7205;SDS011;3644;53.480;10.004;2022-07-23T09:54:24;0.90;;;0.70;;
7205;SDS011;3644;53.480;10.004;2022-07-23T09:56:55;0.80;;;0.80;;
7205;SDS011;3644;53.480;10.004;2022-07-23T09:59:25;1.20;;;0.70;;
7205;SDS011;3644;53.480;10.004;2022-07-23T10:01:56;1.90;;;0.90;;
7205;SDS011;3644;53.480;10.004;2022-07-23T10:04:24;1.10;;;1.00;;
7205;SDS011;3644;53.480;10.004;2022-07-23T10:06:51;1.10;;;0.83;;
7205;SDS011;3644;53.480;10.004;2022-07-23T10:09:29;1.67;;;0.90;;
7205;SDS011;3644;53.480;10.004;2022-07-23T10:11:57;1.27;;;1.13;;
7205;SDS011;3644;53.480;10.004;2022-07-23T10:14:32;1.80;;;0.80;;
7205;SDS011;3644;53.480;10.004;2022-07-23T10:17:00;0.93;;;0.80;;
7205;SDS011;3644;53.480;10.004;2022-07-23T10:19:27;4.00;;;1.00;;
7205;SDS011;3644;53.480;10.004;2022-07-23T10:21:57;3.20;;;1.33;;
7205;SDS011;3644;53.480;10.004;2022-07-23T10:24:33;1.33;;;0.90;;
7205;SDS011;3644;53.480;10.004;2022-07-23T10:29:46;3.20;;;1.00;;
7205;SDS011;3644;53.480;10.004;2022-07-23T10:32:26;1.30;;;0.60;;
7205;SDS011;3644;53.480;10.004;2022-07-23T10:37:54;2.27;;;0.80;;
7205;SDS011;3644;53.480;10.004;2022-07-23T10:40:26;0.80;;;0.60;;
7205;SDS011;3644;53.480;10.004;2022-07-23T10:42:53;0.70;;;0.60;;
7205;SDS011;3644;53.480;10.004;2022-07-23T10:45:31;0.73;;;0.60;;
7205;SDS011;3644;53.480;10.004;2022-07-23T10:56:16;0.60;;;0.60;;
7205;SDS011;3644;53.480;10.004;2022-07-23T10:59:05;0.60;;;0.60;;
7205;SDS011;3644;53.480;10.004;2022-07-23T11:01:31;1.60;;;0.60;;
7205;SDS011;3644;53.480;10.004;2022-07-23T11:04:01;1.37;;;0.70;;
7205;SDS011;3644;53.480;10.004;2022-07-23T11:25:14;2.30;;;0.70;;
7205;SDS011;3644;53.480;10.004;2022-07-23T11:27:45;2.60;;;0.90;;
7205;SDS011;3644;53.480;10.004;2022-07-23T11:32:53;2.73;;;0.80;;
7205;SDS011;3644;53.480;10.004;2022-07-23T11:35:34;1.23;;;0.70;;
7205;SDS011;3644;53.480;10.004;2022-07-23T11:38:05;1.70;;;0.70;;
7205;SDS011;3644;53.480;10.004;2022-07-23T11:40:32;0.63;;;0.63;;
7205;SDS011;3644;53.480;10.004;2022-07-23T11:43:04;0.77;;;0.67;;
7205;SDS011;3644;53.480;10.004;2022-07-23T11:45:32;0.60;;;0.60;;
7205;SDS011;3644;53.480;10.004;2022-07-23T11:48:00;3.80;;;0.90;;
7205;SDS011;3644;53.480;10.004;2022-07-23T11:50:27;0.80;;;0.57;;
7205;SDS011;3644;53.480;10.004;2022-07-23T11:52:53;0.60;;;0.60;;
7205;SDS011;3644;53.480;10.004;2022-07-23T11:55:19;2.27;;;0.80;;
7205;SDS011;3644;53.480;10.004;2022-07-23T11:57:45;1.33;;;0.60;;
7205;SDS011;3644;53.480;10.004;2022-07-23T12:00:16;0.60;;;0.60;;
7205;SDS011;3644;53.480;10.004;2022-07-23T12:02:46;3.53;;;0.70;;
7205;SDS011;3644;53.480;10.004;2022-07-23T12:05:14;2.07;;;0.97;;
7205;SDS011;3644;53.480;10.004;2022-07-23T12:07:43;2.33;;;0.90;;
7205;SDS011;3644;53.480;10.004;2022-07-23T12:10:14;0.93;;;0.80;;
7205;SDS011;3644;53.480;10.004;2022-07-23T12:12:48;1.60;;;1.10;;
7205;SDS011;3644;53.480;10.004;2022-07-23T12:15:17;1.53;;;0.70;;
7205;SDS011;3644;53.480;10.004;2022-07-23T12:17:45;1.93;;;0.80;;
7205;SDS011;3644;53.480;10.004;2022-07-23T12:20:13;4.00;;;0.80;;
7205;SDS011;3644;53.480;10.004;2022-07-23T12:22:44;0.80;;;0.70;;
7205;SDS011;3644;53.480;10.004;2022-07-23T12:25:14;1.23;;;0.80;;
7205;SDS011;3644;53.480;10.004;2022-07-23T12:27:42;1.60;;;1.10;;
7205;SDS011;3644;53.480;10.004;2022-07-23T12:30:15;2.20;;;0.70;;
7205;SDS011;3644;53.480;10.004;2022-07-23T12:32:42;1.67;;;0.73;;
7205;SDS011;3644;53.480;10.004;2022-07-23T12:35:09;3.23;;;1.10;;
7205;SDS011;3644;53.480;10.004;2022-07-23T12:37:40;1.63;;;1.53;;
7205;SDS011;3644;53.480;10.004;2022-07-23T12:40:26;5.93;;;1.20;;
7205;SDS011;3644;53.480;10.004;2022-07-23T12:43:05;2.27;;;1.20;;
7205;SDS011;3644;53.480;10.004;2022-07-23T12:45:43;7.50;;;1.63;;
7205;SDS011;3644;53.480;10.004;2022-07-23T12:48:15;2.20;;;1.43;;
7205;SDS011;3644;53.480;10.004;2022-07-23T12:50:52;4.20;;;1.00;;
7205;SDS011;3644;53.480;10.004;2022-07-23T12:55:58;3.93;;;1.10;;
7205;SDS011;3644;53.480;10.004;2022-07-23T12:58:38;1.73;;;1.10;;
7205;SDS011;3644;53.480;10.004;2022-07-23T13:03:57;3.30;;;1.20;;
7205;SDS011;3644;53.480;10.004;2022-07-23T13:06:24;7.03;;;1.10;;
7205;SDS011;3644;53.480;10.004;2022-07-23T13:08:50;3.33;;;1.33;;
7205;SDS011;3644;53.480;10.004;2022-07-23T13:11:16;3.43;;;1.43;;
7205;SDS011;3644;53.480;10.004;2022-07-23T13:13:42;3.77;;;1.17;;
7205;SDS011;3644;53.480;10.004;2022-07-23T13:16:07;2.33;;;1.03;;
7205;SDS011;3644;53.480;10.004;2022-07-23T13:18:33;1.23;;;0.80;;
7205;SDS011;3644;53.480;10.004;2022-07-23T13:20:58;2.03;;;0.90;;
7205;SDS011;3644;53.480;10.004;2022-07-23T13:23:24;1.53;;;1.00;;
7205;SDS011;3644;53.480;10.004;2022-07-23T13:25:50;3.00;;;1.03;;
7205;SDS011;3644;53.480;10.004;2022-07-23T13:28:16;2.00;;;0.70;;
7205;SDS011;3644;53.480;10.004;2022-07-23T13:30:43;1.97;;;1.00;;
7205;SDS011;3644;53.480;10.004;2022-07-23T13:33:10;3.93;;;1.23;;
7205;SDS011;3644;53.480;10.004;2022-07-23T13:35:35;2.50;;;0.90;;
7205;SDS011;3644;53.480;10.004;2022-07-23T13:38:02;2.10;;;1.07;;
7205;SDS011;3644;53.480;10.004;2022-07-23T13:40:28;3.50;;;1.57;;
7205;SDS011;3644;53.480;10.004;2022-07-23T13:42:53;3.50;;;1.60;;
7205;SDS011;3644;53.480;10.004;2022-07-23T13:45:19;1.27;;;0.90;;
7205;SDS011;3644;53.480;10.004;2022-07-23T13:47:45;3.00;;;1.20;;
7205;SDS011;3644;53.480;10.004;2022-07-23T13:50:10;2.67;;;1.10;;
7205;SDS011;3644;53.480;10.004;2022-07-23T13:52:36;3.17;;;1.30;;
7205;SDS011;3644;53.480;10.004;2022-07-23T13:55:02;2.20;;;0.87;;
7205;SDS011;3644;53.480;10.004;2022-07-23T13:57:30;3.00;;;0.90;;
7205;SDS011;3644;53.480;10.004;2022-07-23T13:59:56;3.83;;;1.10;;
7205;SDS011;3644;53.480;10.004;2022-07-23T14:02:21;2.80;;;1.20;;
7205;SDS011;3644;53.480;10.004;2022-07-23T14:04:47;2.50;;;1.07;;
7205;SDS011;3644;53.480;10.004;2022-07-23T14:07:13;1.23;;;0.80;;
7205;SDS011;3644;53.480;10.004;2022-07-23T14:09:39;4.07;;;1.00;;
7205;SDS011;3644;53.480;10.004;2022-07-23T14:12:05;1.10;;;0.80;;
7205;SDS011;3644;53.480;10.004;2022-07-23T14:14:31;3.07;;;1.20;;
7205;SDS011;3644;53.480;10.004;2022-07-23T14:16:56;1.00;;;0.80;;
7205;SDS011;3644;53.480;10.004;2022-07-23T14:19:22;8.20;;;1.10;;
7205;SDS011;3644;53.480;10.004;2022-07-23T14:21:48;1.70;;;0.83;;
7205;SDS011;3644;53.480;10.004;2022-07-23T14:24:14;1.67;;;1.13;;
7205;SDS011;3644;53.480;10.004;2022-07-23T14:26:40;4.07;;;0.90;;
7205;SDS011;3644;53.480;10.004;2022-07-23T14:29:06;3.37;;;1.53;;
7205;SDS011;3644;53.480;10.004;2022-07-23T14:31:31;2.60;;;1.53;;
7205;SDS011;3644;53.480;10.004;2022-07-23T14:33:57;2.03;;;1.23;;
7205;SDS011;3644;53.480;10.004;2022-07-23T14:36:22;2.70;;;1.07;;
7205;SDS011;3644;53.480;10.004;2022-07-23T14:38:49;4.77;;;1.13;;
7205;SDS011;3644;53.480;10.004;2022-07-23T14:41:14;2.20;;;0.90;;
7205;SDS011;3644;53.480;10.004;2022-07-23T14:43:40;1.77;;;0.60;;
7205;SDS011;3644;53.480;10.004;2022-07-23T14:46:06;2.80;;;0.80;;
7205;SDS011;3644;53.480;10.004;2022-07-23T14:48:31;2.20;;;0.90;;
7205;SDS011;3644;53.480;10.004;2022-07-23T14:50:57;1.57;;;0.80;;
7205;SDS011;3644;53.480;10.004;2022-07-23T14:53:22;4.43;;;1.43;;
7205;SDS011;3644;53.480;10.004;2022-07-23T14:55:48;3.07;;;1.13;;
7205;SDS011;3644;53.480;10.004;2022-07-23T14:58:13;2.13;;;1.10;;
7205;SDS011;3644;53.480;10.004;2022-07-23T15:00:39;1.73;;;0.90;;
7205;SDS011;3644;53.480;10.004;2022-07-23T15:03:04;2.10;;;0.90;;
7205;SDS011;3644;53.480;10.004;2022-07-23T15:05:30;3.17;;;0.80;;
7205;SDS011;3644;53.480;10.004;2022-07-23T15:07:55;2.90;;;1.00;;
7205;SDS011;3644;53.480;10.004;2022-07-23T15:10:21;2.70;;;0.80;;
7205;SDS011;3644;53.480;10.004;2022-07-23T15:12:47;3.50;;;0.90;;
7205;SDS011;3644;53.480;10.004;2022-07-23T15:15:12;1.83;;;0.90;;
7205;SDS011;3644;53.480;10.004;2022-07-23T15:17:38;1.63;;;1.20;;
7205;SDS011;3644;53.480;10.004;2022-07-23T15:20:04;0.80;;;0.80;;
7205;SDS011;3644;53.480;10.004;2022-07-23T15:22:30;7.97;;;1.80;;
7205;SDS011;3644;53.480;10.004;2022-07-23T15:24:56;7.47;;;1.60;;
7205;SDS011;3644;53.480;10.004;2022-07-23T15:27:22;1.67;;;1.00;;
7205;SDS011;3644;53.480;10.004;2022-07-23T15:29:47;3.43;;;1.00;;
7205;SDS011;3644;53.480;10.004;2022-07-23T15:32:13;1.30;;;0.90;;
7205;SDS011;3644;53.480;10.004;2022-07-23T15:34:38;2.40;;;1.00;;
7205;SDS011;3644;53.480;10.004;2022-07-23T15:37:04;1.90;;;1.37;;
7205;SDS011;3644;53.480;10.004;2022-07-23T15:39:30;3.03;;;1.10;;
7205;SDS011;3644;53.480;10.004;2022-07-23T15:41:59;3.67;;;1.10;;
7205;SDS011;3644;53.480;10.004;2022-07-23T15:44:26;2.30;;;1.13;;